METAR Data
IDs: Format: Raw Decoded Include TAF

Data at: 2002 UTC 25 Oct 2021

EGLC 251950Z AUTO 24006KT 9999 NCD 12/09 Q1016